Time;durP1;ratioP1;P1;durP2;ratioP2;P2;SDS_P1;SDS_P2;PMS_P1;PMS_P2;Temp;Humidity;BMP_temperature;BMP_pressure;BME280_temperature;BME280_humidity;BME280_pressure;Samples;Min_cycle;Max_cycle;Signal;HPM_P1;HPM_P2
2022/04/01 00:01:50;;;;;;;18.77;16.33;;;;;;;2.94;100.00;97326.03;5008930;28;20210;-79
2022/04/01 00:04:19;;;;;;;20.03;17.23;;;;;;;3.08;100.00;97323.38;5009453;28;20290;-80
2022/04/01 00:06:56;;;;;;;19.00;16.93;;;;;;;3.23;100.00;97328.56;4991714;28;20203;-79
2022/04/01 00:09:25;;;;;;;19.80;17.67;;;;;;;3.19;100.00;97337.56;4995671;28;20191;-79
2022/04/01 00:11:54;;;;;;;18.37;16.40;;;;;;;3.08;100.00;97333.00;4992280;28;20230;-79
2022/04/01 00:14:27;;;;;;;18.67;16.10;;;;;;;3.08;100.00;97335.59;4993231;28;20192;-79
2022/04/01 00:16:57;;;;;;;18.40;15.83;;;;;;;3.15;100.00;97337.75;4976498;28;20214;-79
2022/04/01 00:19:28;;;;;;;17.30;15.50;;;;;;;3.24;100.00;97338.94;4995197;28;20198;-80
2022/04/01 00:21:56;;;;;;;17.43;15.00;;;;;;;2.91;100.00;97339.31;4970479;28;20231;-79
2022/04/01 00:24:25;;;;;;;17.47;15.53;;;;;;;2.82;100.00;97340.72;4972490;28;20199;-80
2022/04/01 00:26:53;;;;;;;18.57;16.07;;;;;;;2.84;100.00;97338.84;4962982;28;20203;-80
2022/04/01 00:29:22;;;;;;;18.30;15.83;;;;;;;3.02;100.00;97341.25;4967935;28;20196;-80
2022/04/01 00:31:58;;;;;;;18.10;16.17;;;;;;;3.08;100.00;97338.22;4972567;28;20219;-79
2022/04/01 00:34:28;;;;;;;18.10;15.97;;;;;;;2.92;100.00;97342.75;4973542;28;20379;-80
2022/04/01 00:36:59;;;;;;;19.00;16.43;;;;;;;2.88;100.00;97347.31;4973412;28;20231;-80
2022/04/01 00:39:31;;;;;;;17.63;15.67;;;;;;;2.92;100.00;97346.22;4973915;28;20203;-79
2022/04/01 00:42:01;;;;;;;16.90;15.10;;;;;;;2.92;100.00;97350.59;4990024;28;20206;-80
2022/04/01 00:44:33;;;;;;;17.83;15.93;;;;;;;2.90;100.00;97345.47;4990823;28;20199;-79
2022/04/01 00:47:05;;;;;;;18.03;16.07;;;;;;;2.86;100.00;97344.81;4994088;28;20203;-79
2022/04/01 00:49:34;;;;;;;18.03;15.87;;;;;;;3.12;100.00;97348.41;4970757;28;20220;-79
2022/04/01 00:52:09;;;;;;;16.73;14.93;;;;;;;3.01;100.00;97350.03;4976077;28;20231;-80
2022/04/01 00:54:40;;;;;;;17.00;15.13;;;;;;;3.00;100.00;97351.81;4972550;28;20200;-80
2022/04/01 00:57:11;;;;;;;17.53;15.33;;;;;;;2.98;100.00;97344.97;4973147;28;20196;-80
2022/04/01 00:59:40;;;;;;;17.27;15.40;;;;;;;2.92;100.00;97348.81;4969262;28;20188;-80
2022/04/01 01:02:10;;;;;;;17.80;15.67;;;;;;;3.06;100.00;97347.94;4970045;28;20210;-80
2022/04/01 01:04:39;;;;;;;16.47;14.50;;;;;;;2.88;100.00;97347.31;4972523;28;20235;-79
2022/04/01 01:07:08;;;;;;;17.73;15.83;;;;;;;3.06;100.00;97340.94;4974290;28;20210;-79
2022/04/01 01:09:40;;;;;;;18.00;14.40;;;;;;;3.07;100.00;97337.38;4994243;28;20254;-80
2022/04/01 01:12:08;;;;;;;16.20;14.30;;;;;;;2.97;100.00;97341.50;4991589;28;20227;-80
2022/04/01 01:14:39;;;;;;;15.90;14.30;;;;;;;3.17;100.00;97329.78;4984957;28;20274;-78
2022/04/01 01:17:12;;;;;;;16.33;14.63;;;;;;;3.00;100.00;97328.28;4993581;28;20192;-79
2022/04/01 01:19:45;;;;;;;15.77;13.63;;;;;;;2.98;100.00;97330.13;4996309;28;20199;-80
2022/04/01 01:22:15;;;;;;;15.63;14.00;;;;;;;2.94;100.00;97339.09;4996054;28;20300;-80
2022/04/01 01:24:45;;;;;;;15.47;13.87;;;;;;;2.90;100.00;97323.72;5001868;28;20287;-79
2022/04/01 01:27:14;;;;;;;15.63;14.03;;;;;;;2.84;100.00;97325.78;4999033;28;20207;-79
2022/04/01 01:29:46;;;;;;;15.73;14.07;;;;;;;2.88;100.00;97322.00;4993425;28;20203;-80
2022/04/01 01:32:19;;;;;;;15.40;13.80;;;;;;;3.03;100.00;97319.38;5009006;28;20218;-80
2022/04/01 01:34:47;;;;;;;15.67;13.97;;;;;;;3.20;100.00;97326.16;5011745;28;20226;-80
2022/04/01 01:37:16;;;;;;;15.63;13.90;;;;;;;2.98;100.00;97324.06;4968593;28;20227;-80
2022/04/01 01:39:46;;;;;;;14.60;13.10;;;;;;;3.11;100.00;97332.81;4967640;28;20206;-80
2022/04/01 01:42:15;;;;;;;13.93;12.53;;;;;;;2.97;100.00;97327.59;4969818;28;20230;-79
2022/04/01 01:44:44;;;;;;;14.40;13.00;;;;;;;2.76;100.00;97327.19;4964695;28;20208;-79
2022/04/01 01:47:12;;;;;;;14.60;13.20;;;;;;;2.81;100.00;97331.19;4968104;28;20359;-79
2022/04/01 01:54:42;;;;;;;14.80;13.20;;;;;;;2.76;100.00;97329.78;4967088;28;20208;-79
2022/04/01 01:55:18;;;;;;;14.43;12.93;;;;;;;2.99;100.00;97331.81;4988489;28;20216;-80
2022/04/01 01:57:47;;;;;;;13.53;12.13;;;;;;;2.79;100.00;97324.38;4993822;28;20643;-79
2022/04/01 02:00:20;;;;;;;14.83;13.17;;;;;;;2.79;100.00;97325.19;4985472;28;20211;-79
2022/04/01 02:02:49;;;;;;;13.50;12.10;;;;;;;2.76;100.00;97330.63;4990130;28;20207;-79
2022/04/01 02:05:18;;;;;;;13.90;12.50;;;;;;;2.69;100.00;97331.09;4989499;28;20282;-79
2022/04/01 02:07:47;;;;;;;14.10;12.60;;;;;;;2.61;100.00;97328.13;4987850;28;20206;-79
2022/04/01 02:10:17;;;;;;;13.30;11.90;;;;;;;2.55;100.00;97330.19;4993321;28;20203;-79
2022/04/01 02:12:47;;;;;;;14.23;12.23;;;;;;;2.62;100.00;97335.03;4992735;28;20227;-79
2022/04/01 02:15:15;;;;;;;14.33;12.73;;;;;;;2.63;100.00;97336.72;4988904;28;20203;-79
2022/04/01 02:17:44;;;;;;;13.60;11.67;;;;;;;2.47;100.00;97340.25;4989177;28;20195;-79
2022/04/01 02:20:13;;;;;;;13.83;12.33;;;;;;;2.49;100.00;97341.00;4990831;28;20207;-79
2022/04/01 02:22:43;;;;;;;14.13;12.73;;;;;;;2.45;100.00;97331.69;4990786;28;20230;-79
2022/04/01 02:25:13;;;;;;;13.80;11.93;;;;;;;2.74;100.00;97334.28;4969852;28;20231;-79
2022/04/01 02:27:43;;;;;;;14.10;12.67;;;;;;;2.64;100.00;97334.00;4971826;28;20200;-78
2022/04/01 02:30:13;;;;;;;13.90;12.50;;;;;;;2.61;100.00;97339.44;4968109;28;20204;-78
2022/04/01 02:32:43;;;;;;;12.87;11.53;;;;;;;2.51;100.00;97349.59;4975464;28;20215;-79
2022/04/01 02:35:12;;;;;;;14.57;12.97;;;;;;;2.54;100.00;97346.78;4973047;28;20209;-79
2022/04/01 02:37:41;;;;;;;14.17;11.93;;;;;;;2.54;100.00;97349.41;4970332;28;20681;-79
2022/04/01 02:40:12;;;;;;;14.07;12.60;;;;;;;2.46;100.00;97356.03;4972685;28;20195;-79
2022/04/01 02:42:41;;;;;;;15.13;12.30;;;;;;;2.67;100.00;97356.50;4970535;28;20203;-79
2022/04/01 02:45:13;;;;;;;14.37;12.30;;;;;;;2.64;100.00;97365.38;4972015;28;20199;-79
2022/04/01 02:47:42;;;;;;;13.53;11.93;;;;;;;2.53;100.00;97360.78;4972033;28;20470;-79
2022/04/01 02:50:11;;;;;;;12.47;11.10;;;;;;;2.49;100.00;97367.13;4982859;28;20269;-79
2022/04/01 02:52:39;;;;;;;12.67;11.33;;;;;;;2.54;100.00;97364.25;4993297;28;20211;-79
2022/04/01 02:55:10;;;;;;;13.57;12.17;;;;;;;2.47;100.00;97360.31;4996275;28;20207;-79
2022/04/01 02:57:39;;;;;;;12.80;11.47;;;;;;;2.39;100.00;97359.94;4992911;28;20658;-79
2022/04/01 03:00:09;;;;;;;12.60;11.30;;;;;;;2.38;100.00;97366.94;4997540;28;20222;-79
2022/04/01 03:02:40;;;;;;;13.17;11.80;;;;;;;2.32;100.00;97366.44;4995488;28;20279;-79
2022/04/01 03:05:10;;;;;;;13.03;11.57;;;;;;;2.29;100.00;97368.31;4991954;28;20669;-79
2022/04/01 03:07:39;;;;;;;13.93;12.30;;;;;;;2.36;100.00;97368.81;4995252;28;20211;-79
2022/04/01 03:10:09;;;;;;;12.93;11.47;;;;;;;2.43;100.00;97362.28;4994124;28;20206;-79
2022/04/01 03:12:38;;;;;;;13.63;11.83;;;;;;;2.51;100.00;97370.50;4997446;28;20227;-79
2022/04/01 03:15:08;;;;;;;14.07;11.87;;;;;;;2.28;100.00;97360.56;4989451;28;20218;-79
2022/04/01 03:17:36;;;;;;;12.10;10.60;;;;;;;2.48;100.00;97372.44;4995130;28;20207;-79
2022/04/01 03:20:13;;;;;;;14.07;12.03;;;;;;;2.23;100.00;97376.53;5026596;28;20201;-79
2022/04/01 03:22:43;;;;;;;14.70;11.80;;;;;;;2.18;100.00;97373.34;5028376;28;20288;-79
2022/04/01 03:25:15;;;;;;;12.50;11.07;;;;;;;2.29;100.00;97375.31;5027408;28;20213;-79
2022/04/01 03:27:44;;;;;;;13.70;11.60;;;;;;;2.22;100.00;97379.22;4932211;29;20201;-79
2022/04/01 03:30:14;;;;;;;13.33;11.47;;;;;;;2.32;100.00;97374.28;4927593;29;20201;-79
2022/04/01 03:32:45;;;;;;;13.53;12.13;;;;;;;2.14;100.00;97386.69;4929155;29;20224;-79
2022/04/01 03:35:20;;;;;;;12.80;11.40;;;;;;;2.20;100.00;97368.88;4925754;29;20208;-79
2022/04/01 03:37:50;;;;;;;11.70;10.50;;;;;;;2.23;100.00;97370.47;4926851;29;20197;-79
2022/04/01 03:40:21;;;;;;;13.00;11.30;;;;;;;2.09;100.00;97375.66;4912144;29;20197;-79
2022/04/01 03:42:55;;;;;;;15.10;11.00;;;;;;;2.01;100.00;97374.31;4906816;29;20208;-79
2022/04/01 03:45:24;;;;;;;13.67;11.73;;;;;;;1.99;100.00;97372.75;4936560;28;20198;-81
2022/04/01 03:48:00;;;;;;;14.07;12.00;;;;;;;2.14;100.00;97369.25;4994788;28;20199;-79
2022/04/01 03:50:34;;;;;;;13.47;11.87;;;;;;;1.91;100.00;97372.34;4991823;28;20238;-79
2022/04/01 03:53:05;;;;;;;13.70;11.77;;;;;;;1.86;100.00;97374.38;4993320;28;20222;-79
2022/04/01 03:55:36;;;;;;;13.60;11.30;;;;;;;2.04;100.00;97375.09;4992871;28;20210;-79
2022/04/01 03:58:08;;;;;;;13.93;12.50;;;;;;;1.88;100.00;97375.13;4990559;28;20725;-78
2022/04/01 04:00:41;;;;;;;13.63;11.80;;;;;;;2.06;100.00;97381.06;4990690;28;20214;-79
2022/04/01 04:03:11;;;;;;;14.73;11.37;;;;;;;1.91;100.00;97381.00;4987759;28;20450;-79
2022/04/01 04:05:41;;;;;;;12.50;10.87;;;;;;;2.01;100.00;97383.94;4995588;28;20187;-79
2022/04/01 04:08:12;;;;;;;14.67;11.90;;;;;;;1.95;100.00;97381.69;4994363;28;20221;-79
2022/04/01 04:10:42;;;;;;;13.50;11.20;;;;;;;1.94;100.00;97387.84;4995055;28;20229;-78
2022/04/01 04:13:13;;;;;;;13.63;11.63;;;;;;;1.92;100.00;97381.84;4992263;28;20250;-79
2022/04/01 04:15:49;;;;;;;15.97;12.37;;;;;;;1.78;100.00;97385.25;4992934;28;20203;-79
2022/04/01 04:18:19;;;;;;;13.83;11.73;;;;;;;1.82;100.00;97391.13;4994969;28;20202;-79
2022/04/01 04:21:04;;;;;;;13.07;11.77;;;;;;;1.84;100.00;97389.31;4993733;28;20250;-79
2022/04/01 04:23:39;;;;;;;14.07;11.43;;;;;;;1.88;100.00;97389.03;4994857;28;20222;-79
2022/04/01 04:26:13;;;;;;;12.93;11.47;;;;;;;1.76;100.00;97400.19;4989573;28;20214;-79
2022/04/01 04:28:46;;;;;;;13.93;10.90;;;;;;;1.74;100.00;97396.81;4993746;28;20672;-79
2022/04/01 04:31:16;;;;;;;14.80;11.80;;;;;;;1.83;100.00;97401.47;4995594;28;20191;-79
2022/04/01 04:33:48;;;;;;;13.57;11.27;;;;;;;1.85;100.00;97401.41;4951256;28;20299;-79
2022/04/01 04:36:37;;;;;;;13.00;10.87;;;;;;;1.77;100.00;97409.69;4953911;28;20228;-78
2022/04/01 04:39:07;;;;;;;12.00;10.57;;;;;;;1.83;100.00;97419.75;4951507;28;20355;-79
2022/04/01 04:41:35;;;;;;;14.90;10.93;;;;;;;1.67;100.00;97418.97;4951460;28;20244;-79
2022/04/01 04:44:04;;;;;;;12.30;10.87;;;;;;;1.75;100.00;97424.59;4950022;28;20200;-79
2022/04/01 04:46:35;;;;;;;15.07;11.90;;;;;;;1.78;100.00;97426.19;4949692;28;20204;-79
2022/04/01 04:49:04;;;;;;;14.30;11.37;;;;;;;1.72;100.00;97420.38;4953463;28;20232;-79
2022/04/01 04:51:38;;;;;;;15.33;11.77;;;;;;;1.64;100.00;97426.94;4966070;28;20229;-79
2022/04/01 04:54:08;;;;;;;12.77;10.93;;;;;;;1.60;100.00;97420.22;4996586;28;20223;-78
2022/04/01 04:56:37;;;;;;;17.53;12.13;;;;;;;1.59;100.00;97435.03;4989983;28;20195;-79
2022/04/01 04:59:07;;;;;;;15.87;11.90;;;;;;;1.61;100.00;97435.78;4992905;28;20252;-78
2022/04/01 05:01:39;;;;;;;16.10;12.57;;;;;;;1.66;100.00;97438.16;4975031;28;20197;-78
2022/04/01 05:04:39;;;;;;;14.40;12.23;;;;;;;1.73;100.00;97439.47;4990037;28;20203;-79
2022/04/01 05:07:20;;;;;;;15.87;13.10;;;;;;;1.70;100.00;97443.09;4993799;28;20191;-79
2022/04/01 05:10:00;;;;;;;17.10;13.57;;;;;;;1.63;100.00;97449.56;4988710;28;20199;-79
2022/04/01 05:12:34;;;;;;;18.17;14.10;;;;;;;1.50;100.00;97459.03;4990235;28;20642;-79
2022/04/01 05:15:09;;;;;;;16.00;13.57;;;;;;;1.45;100.00;97458.44;4989322;28;20219;-77
2022/04/01 05:17:40;;;;;;;16.50;13.63;;;;;;;1.56;100.00;97460.47;4994102;28;20672;-79
2022/04/01 05:20:16;;;;;;;20.83;15.60;;;;;;;1.51;100.00;97463.31;4990443;28;20198;-79
2022/04/01 05:22:55;;;;;;;17.10;13.57;;;;;;;1.50;100.00;97460.78;4992049;28;20187;-79
2022/04/01 05:25:28;;;;;;;22.77;17.30;;;;;;;1.46;100.00;97475.78;4993604;28;20290;-78
2022/04/01 05:28:02;;;;;;;16.30;12.63;;;;;;;1.41;100.00;97472.56;4991329;28;20249;-79
2022/04/01 05:30:32;;;;;;;20.27;15.30;;;;;;;1.48;100.00;97476.53;4990887;28;20213;-79
2022/04/01 05:33:06;;;;;;;19.30;15.70;;;;;;;1.45;100.00;97479.31;4992858;28;20720;-79
2022/04/01 05:35:37;;;;;;;17.00;13.40;;;;;;;1.43;100.00;97479.38;4991611;28;20709;-79
2022/04/01 05:38:08;;;;;;;19.07;12.83;;;;;;;1.45;100.00;97481.91;4991235;28;20206;-78
2022/04/01 05:40:39;;;;;;;16.13;13.27;;;;;;;1.33;100.00;97479.94;4993612;28;20213;-78
2022/04/01 05:43:07;;;;;;;15.00;12.40;;;;;;;1.41;100.00;97483.84;4988405;28;20199;-79
2022/04/01 05:45:36;;;;;;;15.90;13.20;;;;;;;1.47;100.00;97482.66;4988082;28;20210;-80
2022/04/01 05:48:11;;;;;;;15.97;12.80;;;;;;;1.50;100.00;97485.09;5009515;28;20205;-79
2022/04/01 05:50:43;;;;;;;12.83;11.50;;;;;;;1.61;100.00;97497.56;5010699;28;20190;-79
2022/04/01 05:53:14;;;;;;;18.23;12.37;;;;;;;1.56;100.00;97496.97;4979007;28;20195;-80
2022/04/01 05:55:44;;;;;;;12.37;11.07;;;;;;;1.45;100.00;97494.97;5009587;28;20214;-79
2022/04/01 05:58:12;;;;;;;13.60;12.07;;;;;;;1.48;100.00;97499.16;5006147;28;20186;-79
2022/04/01 06:00:50;;;;;;;13.60;11.63;;;;;;;1.61;100.00;97500.16;5011351;28;20191;-79
2022/04/01 06:03:42;;;;;;;12.83;10.67;;;;;;;1.57;100.00;97499.50;5011613;28;20198;-79
2022/04/01 06:06:15;;;;;;;12.07;9.87;;;;;;;1.54;100.00;97515.31;5005242;28;20211;-79
2022/04/01 06:08:58;;;;;;;12.30;10.27;;;;;;;1.52;100.00;97504.13;4997165;28;20191;-79
2022/04/01 06:11:38;;;;;;;11.83;9.70;;;;;;;1.62;100.00;97499.25;4993589;28;20199;-79
2022/04/01 06:14:12;;;;;;;10.90;9.30;;;;;;;1.52;100.00;97511.09;4995855;28;20219;-78
2022/04/01 06:16:45;;;;;;;11.93;10.60;;;;;;;1.52;100.00;97503.28;4992945;28;20206;-80
2022/04/01 06:19:24;;;;;;;12.67;9.67;;;;;;;1.56;100.00;97507.41;4997511;28;20231;-80
2022/04/01 06:22:03;;;;;;;12.13;10.07;;;;;;;1.59;100.00;97515.91;4994677;28;20318;-79
2022/04/01 06:24:45;;;;;;;12.60;9.67;;;;;;;1.54;100.00;97514.47;4991907;28;20225;-79
2022/04/01 06:27:20;;;;;;;11.87;9.50;;;;;;;1.56;100.00;97520.47;4995396;28;20227;-79
2022/04/01 06:30:00;;;;;;;13.50;10.63;;;;;;;1.50;100.00;97515.56;4995677;28;20195;-79
2022/04/01 06:32:37;;;;;;;15.73;10.23;;;;;;;1.63;100.00;97530.47;4992930;28;20199;-79
2022/04/01 06:35:12;;;;;;;14.13;9.33;;;;;;;1.62;100.00;97527.94;4994117;28;20234;-79
2022/04/01 06:37:48;;;;;;;12.43;10.43;;;;;;;1.57;100.00;97536.03;4996496;28;20214;-78
2022/04/01 06:40:23;;;;;;;12.77;9.70;;;;;;;1.59;100.00;97534.16;4996676;28;20273;-78
2022/04/01 06:42:53;;;;;;;14.13;10.23;;;;;;;1.66;100.00;97537.31;4975924;28;20202;-78
2022/04/01 06:45:23;;;;;;;13.43;10.30;;;;;;;1.57;100.00;97541.25;4997492;28;20246;-78
2022/04/01 06:47:52;;;;;;;12.17;9.07;;;;;;;1.57;100.00;97548.22;4991267;28;20210;-78
2022/04/01 06:50:20;;;;;;;12.37;10.37;;;;;;;1.38;100.00;97543.16;4996816;28;20195;-78
2022/04/01 06:52:49;;;;;;;13.17;10.93;;;;;;;1.48;100.00;97548.72;4988458;28;20210;-79
2022/04/01 06:55:24;;;;;;;15.57;13.23;;;;;;;1.56;100.00;97551.78;4991075;28;20223;-79
2022/04/01 06:57:52;;;;;;;15.37;13.50;;;;;;;1.63;100.00;97555.72;4993003;28;20202;-79
2022/04/01 07:00:21;;;;;;;13.50;11.73;;;;;;;1.66;100.00;97558.19;4935850;29;20246;-79
2022/04/01 07:02:51;;;;;;;14.73;11.93;;;;;;;1.59;100.00;97556.81;4933762;29;20201;-79
2022/04/01 07:05:20;;;;;;;12.17;9.83;;;;;;;1.43;100.00;97560.22;4933837;29;20728;-78
2022/04/01 07:07:48;;;;;;;12.47;10.57;;;;;;;1.56;100.00;97557.81;4933086;29;20195;-79
2022/04/01 07:10:16;;;;;;;12.93;10.70;;;;;;;1.59;100.00;97562.88;4936996;28;20196;-78
2022/04/01 07:12:46;;;;;;;11.37;9.63;;;;;;;1.49;100.00;97559.06;4948924;28;20204;-79
2022/04/01 07:15:16;;;;;;;12.30;9.60;;;;;;;1.56;100.00;97560.44;4947604;28;20216;-79
2022/04/01 07:17:45;;;;;;;10.97;9.70;;;;;;;1.48;100.00;97565.22;4952932;28;20192;-79
2022/04/01 07:20:14;;;;;;;11.57;10.23;;;;;;;1.55;100.00;97558.75;4951549;29;20192;-79
2022/04/01 07:22:51;;;;;;;12.27;9.70;;;;;;;1.54;100.00;97564.88;4953616;28;20192;-78
2022/04/01 07:25:22;;;;;;;10.40;8.80;;;;;;;1.72;100.00;97569.09;4976183;28;20199;-79
2022/04/01 07:27:54;;;;;;;13.63;9.37;;;;;;;1.61;100.00;97578.44;4990672;28;20203;-78
2022/04/01 07:30:24;;;;;;;11.93;9.33;;;;;;;1.62;100.00;97572.28;4995813;28;20270;-78
2022/04/01 07:32:58;;;;;;;10.17;9.17;;;;;;;1.60;100.00;97585.41;4993516;28;20199;-78
2022/04/01 07:35:29;;;;;;;11.00;9.30;;;;;;;1.63;100.00;97579.19;4994705;28;20227;-79
2022/04/01 07:37:58;;;;;;;12.33;9.13;;;;;;;1.81;100.00;97583.41;4961793;28;20201;-79
2022/04/01 07:40:26;;;;;;;11.10;9.53;;;;;;;1.67;100.00;97593.78;4994777;28;20630;-79
2022/04/01 07:42:56;;;;;;;10.20;8.80;;;;;;;1.71;100.00;97596.13;4992730;28;20191;-79
2022/04/01 07:45:25;;;;;;;10.40;8.67;;;;;;;1.54;100.00;97596.16;4992622;28;20195;-79
2022/04/01 07:47:54;;;;;;;11.73;8.40;;;;;;;1.65;100.00;97604.31;4996926;28;20199;-79
2022/04/01 07:50:24;;;;;;;9.37;8.37;;;;;;;1.73;100.00;97609.94;4951330;28;20660;-79
2022/04/01 07:52:53;;;;;;;12.03;9.20;;;;;;;1.65;100.00;97611.28;4952543;28;20200;-78
2022/04/01 07:55:22;;;;;;;10.13;8.57;;;;;;;1.82;100.00;97615.59;4952150;28;20216;-79
2022/04/01 07:57:53;;;;;;;10.03;8.83;;;;;;;1.57;100.00;97608.22;4947538;28;20201;-78
2022/04/01 08:00:46;;;;;;;10.17;7.83;;;;;;;1.64;100.00;97620.88;4955021;28;20201;-78
2022/04/01 08:03:15;;;;;;;12.43;8.80;;;;;;;1.82;100.00;97621.66;4952739;28;20211;-79
2022/04/01 08:05:44;;;;;;;9.57;8.33;;;;;;;1.70;100.00;97620.53;4956272;28;20204;-78
2022/04/01 08:08:14;;;;;;;8.97;7.90;;;;;;;1.76;100.00;97623.75;4953857;28;20211;-79
2022/04/01 08:10:43;;;;;;;9.83;8.17;;;;;;;1.80;100.00;97625.28;4950620;28;20287;-79
2022/04/01 08:13:11;;;;;;;10.57;8.27;;;;;;;1.85;100.00;97626.72;4955191;28;20210;-79
2022/04/01 08:15:40;;;;;;;8.70;7.80;;;;;;;2.14;100.00;97632.97;4985532;28;20222;-79
2022/04/01 08:18:10;;;;;;;9.67;7.80;;;;;;;2.07;100.00;97634.22;4991054;28;20206;-78
2022/04/01 08:20:39;;;;;;;10.50;8.33;;;;;;;1.99;100.00;97632.03;4992208;28;20218;-79
2022/04/01 08:23:08;;;;;;;10.63;8.80;;;;;;;1.81;100.00;97637.38;4988949;28;20202;-79
2022/04/01 08:25:37;;;;;;;8.37;7.47;;;;;;;1.97;100.00;97652.16;4989124;28;20299;-79
2022/04/01 08:28:06;;;;;;;10.37;9.03;;;;;;;1.94;100.00;97643.66;4989167;28;20209;-79
2022/04/01 08:30:35;;;;;;;10.43;9.17;;;;;;;1.98;100.00;97653.00;4982141;28;20223;-79
2022/04/01 08:33:04;;;;;;;10.80;8.20;;;;;;;2.00;100.00;97654.59;4993688;28;20647;-79
2022/04/01 08:35:35;;;;;;;9.67;8.17;;;;;;;1.96;100.00;97663.53;4989727;28;20227;-79
2022/04/01 08:38:03;;;;;;;10.37;8.10;;;;;;;2.04;100.00;97663.13;4992753;28;20322;-79
2022/04/01 08:40:32;;;;;;;8.83;6.67;;;;;;;1.95;100.00;97663.63;4970753;28;20204;-79
2022/04/01 08:43:01;;;;;;;9.23;7.57;;;;;;;2.08;100.00;97672.47;4969608;28;20769;-79
2022/04/01 08:45:34;;;;;;;12.17;9.47;;;;;;;2.03;100.00;97666.66;4969682;28;20286;-79
2022/04/01 08:48:04;;;;;;;9.97;8.33;;;;;;;2.06;100.00;97676.94;4968064;28;20196;-79
2022/04/01 08:50:34;;;;;;;7.93;7.13;;;;;;;1.98;100.00;97677.34;4941166;28;20666;-79
2022/04/01 08:53:05;;;;;;;8.43;7.53;;;;;;;1.84;100.00;97684.22;4971171;28;20215;-79
2022/04/01 08:55:34;;;;;;;8.40;7.10;;;;;;;1.87;100.00;97681.44;4897612;29;20222;-79
2022/04/01 08:58:03;;;;;;;9.77;7.67;;;;;;;1.99;100.00;97683.41;4896752;29;20227;-79
2022/04/01 09:00:35;;;;;;;7.97;7.10;;;;;;;1.97;100.00;97690.47;4934330;29;20200;-79
2022/04/01 09:03:07;;;;;;;7.90;7.10;;;;;;;2.08;100.00;97687.28;4931563;29;20189;-79
2022/04/01 09:05:38;;;;;;;7.77;6.97;;;;;;;1.92;100.00;97689.88;4927916;29;20724;-79
2022/04/01 09:08:08;;;;;;;7.27;6.57;;;;;;;1.90;100.00;97694.31;4933773;29;20679;-78
2022/04/01 09:10:58;;;;;;;7.43;6.50;;;;;;;1.89;100.00;97690.03;4934008;29;20189;-78
2022/04/01 09:13:28;;;;;;;8.30;6.17;;;;;;;1.97;100.00;97699.16;4951302;28;20210;-79
2022/04/01 09:15:57;;;;;;;8.13;6.83;;;;;;;2.00;100.00;97703.34;4989384;28;20273;-79
2022/04/01 09:18:43;;;;;;;6.83;6.13;;;;;;;1.97;100.00;97703.53;4991178;28;20210;-79
2022/04/01 09:21:15;;;;;;;7.40;6.50;;;;;;;1.93;100.00;97699.38;4987440;28;20230;-78
2022/04/01 09:23:48;;;;;;;8.20;6.97;;;;;;;2.03;100.00;97698.00;4991078;28;20221;-79
2022/04/01 09:26:22;;;;;;;7.20;6.50;;;;;;;2.19;100.00;97698.00;4993453;28;20199;-79
2022/04/01 09:28:53;;;;;;;8.43;7.10;;;;;;;2.18;100.00;97709.38;4973400;28;20199;-79
2022/04/01 09:31:32;;;;;;;7.60;5.70;;;;;;;2.14;100.00;97697.41;4970600;28;20222;-79
2022/04/01 09:34:13;;;;;;;7.73;5.83;;;;;;;2.19;100.00;97708.44;4895271;29;20289;-79
2022/04/01 09:36:45;;;;;;;7.73;6.07;;;;;;;1.92;100.00;97714.19;4893466;29;20232;-79
2022/04/01 09:39:14;;;;;;;7.80;6.03;;;;;;;2.05;100.00;97724.00;4894525;29;20213;-79
2022/04/01 09:41:47;;;;;;;10.43;7.80;;;;;;;2.20;100.00;97713.56;4893792;29;20190;-79
2022/04/01 09:44:28;;;;;;;6.87;5.93;;;;;;;1.94;100.00;97711.53;4893912;29;20254;-78
2022/04/01 09:46:58;;;;;;;6.53;5.77;;;;;;;2.05;100.00;97722.25;4840126;29;20280;-78
2022/04/01 09:49:33;;;;;;;6.60;5.90;;;;;;;2.17;100.00;97725.97;4835826;29;20201;-79
2022/04/01 09:52:08;;;;;;;5.93;5.33;;;;;;;2.24;100.00;97717.72;4863214;29;20210;-79
2022/04/01 09:54:44;;;;;;;6.70;5.57;;;;;;;2.19;100.00;97722.34;4893007;29;20194;-79
2022/04/01 09:57:13;;;;;;;7.23;6.10;;;;;;;2.01;100.00;97725.94;4890712;29;20222;-79
2022/04/01 09:59:43;;;;;;;8.80;7.10;;;;;;;2.27;100.00;97730.63;4921309;29;20284;-79
2022/04/01 10:02:12;;;;;;;7.27;5.80;;;;;;;2.19;100.00;97732.78;4925431;29;20208;-78
2022/04/01 10:04:41;;;;;;;6.17;5.50;;;;;;;2.23;100.00;97726.50;4945379;28;20206;-79
2022/04/01 10:07:12;;;;;;;5.50;4.90;;;;;;;2.12;100.00;97730.56;4993792;28;20197;-79
2022/04/01 10:09:43;;;;;;;6.03;5.40;;;;;;;2.12;100.00;97726.19;4993580;28;20195;-79
2022/04/01 10:12:34;;;;;;;5.50;5.00;;;;;;;2.01;100.00;97723.31;4993436;28;20203;-78
2022/04/01 10:15:07;;;;;;;5.77;4.87;;;;;;;2.10;100.00;97729.81;4989270;28;20214;-79
2022/04/01 10:17:59;;;;;;;6.17;5.40;;;;;;;2.36;100.00;97728.44;4993441;28;20222;-79
2022/04/01 10:20:34;;;;;;;5.60;5.00;;;;;;;2.49;100.00;97732.06;4993311;28;20223;-78
2022/04/01 10:23:07;;;;;;;5.43;4.90;;;;;;;1.97;100.00;97737.47;4991931;28;20190;-79
2022/04/01 10:25:49;;;;;;;5.80;5.23;;;;;;;2.13;100.00;97740.13;4990863;28;20199;-79
2022/04/01 10:28:25;;;;;;;6.43;5.43;;;;;;;2.14;100.00;97739.19;4990146;28;20205;-78
2022/04/01 10:30:55;;;;;;;6.97;6.13;;;;;;;2.05;100.00;97737.91;4993317;28;20203;-78
2022/04/01 10:33:25;;;;;;;6.80;6.10;;;;;;;2.07;100.00;97737.81;4992961;28;20199;-78
2022/04/01 10:35:55;;;;;;;10.50;8.70;;;;;;;2.29;100.00;97741.81;4993242;28;20282;-78
2022/04/01 10:38:33;;;;;;;11.90;9.93;;;;;;;2.17;100.00;97739.88;4990990;28;20310;-78
2022/04/01 10:41:11;;;;;;;8.30;7.50;;;;;;;2.30;100.00;97740.88;4991682;28;20187;-78
2022/04/01 10:43:41;;;;;;;7.77;6.00;;;;;;;2.26;100.00;97739.38;4991278;28;20279;-78
2022/04/01 10:46:13;;;;;;;6.53;5.93;;;;;;;2.25;100.00;97742.06;4986857;28;20203;-79
2022/04/01 10:52:02;;;;;;;8.70;6.77;;;;;;;2.73;100.00;97749.03;4955777;29;20300;-79
2022/04/01 10:54:42;;;;;;;7.93;7.00;;;;;;;2.82;100.00;97748.53;4949899;28;20204;-78
2022/04/01 10:57:15;;;;;;;7.20;6.50;;;;;;;2.59;100.00;97754.16;4953151;28;20212;-79
2022/04/01 10:59:48;;;;;;;7.53;6.73;;;;;;;2.33;100.00;97752.97;4954600;28;20196;-78
2022/04/01 11:02:20;;;;;;;8.23;5.87;;;;;;;2.46;100.00;97758.38;4953269;28;20219;-79
2022/04/01 11:04:51;;;;;;;6.67;6.00;;;;;;;2.54;100.00;97759.66;4953342;28;20316;-79
2022/04/01 11:07:33;;;;;;;6.43;5.77;;;;;;;2.33;100.00;97759.97;4977475;28;20195;-79
2022/04/01 11:10:10;;;;;;;7.13;5.60;;;;;;;1.98;100.00;97762.66;4995924;28;20206;-79
2022/04/01 11:12:42;;;;;;;6.50;5.90;;;;;;;1.92;100.00;97752.50;4990826;28;20612;-79
2022/04/01 11:15:17;;;;;;;6.47;5.87;;;;;;;1.99;100.00;97761.72;4993028;28;20277;-80
2022/04/01 11:18:05;;;;;;;6.17;5.57;;;;;;;1.92;100.00;97762.94;4994370;28;20229;-79
2022/04/01 11:20:35;;;;;;;5.90;5.30;;;;;;;2.05;100.00;97768.41;4992448;28;20708;-80
2022/04/01 11:23:10;;;;;;;6.47;5.77;;;;;;;2.20;100.00;97765.81;4995808;28;20198;-80
2022/04/01 11:26:00;;;;;;;6.30;5.60;;;;;;;2.08;100.00;97770.84;4995688;28;20198;-79
2022/04/01 11:28:30;;;;;;;6.87;6.17;;;;;;;2.22;100.00;97773.56;4994895;28;20199;-79
2022/04/01 11:31:17;;;;;;;6.13;5.53;;;;;;;1.93;100.00;97775.94;4990447;28;20191;-80
2022/04/01 11:34:01;;;;;;;9.30;6.43;;;;;;;2.06;100.00;97772.69;4991586;28;20689;-79
2022/04/01 11:36:31;;;;;;;7.30;6.50;;;;;;;1.95;100.00;97765.44;4990509;28;20214;-79
2022/04/01 11:39:00;;;;;;;7.00;6.30;;;;;;;2.24;100.00;97779.56;4953396;28;20213;-79
2022/04/01 11:41:54;;;;;;;7.53;6.10;;;;;;;2.28;100.00;97778.47;4954976;28;20204;-79
2022/04/01 11:44:24;;;;;;;6.77;5.53;;;;;;;2.28;100.00;97791.53;4951613;28;20195;-79
2022/04/01 11:46:54;;;;;;;6.20;5.60;;;;;;;1.94;100.00;97782.84;4953322;28;20208;-80
2022/04/01 11:49:27;;;;;;;7.27;6.57;;;;;;;2.42;100.00;97788.22;4955232;28;20250;-79
2022/04/01 11:51:56;;;;;;;6.10;5.60;;;;;;;2.24;100.00;97777.81;4954395;28;20196;-79